Time;durP1;ratioP1;P1;durP2;ratioP2;P2;SDS_P1;SDS_P2;PMS_P1;PMS_P2;Temp;Humidity;BMP_temperature;BMP_pressure;BME280_temperature;BME280_humidity;BME280_pressure;Samples;Min_cycle;Max_cycle;Signal;HPM_P1;HPM_P2
2022/03/13 00:01:33;;;;;;;9.98;7.35;;;;;;;;;;4996010;28;20038;-74
2022/03/13 00:04:01;;;;;;;10.55;7.43;;;;;;;;;;5014171;28;20129;-74
2022/03/13 00:06:35;;;;;;;13.57;7.05;;;;;;;;;;5013663;28;20084;-76
2022/03/13 00:09:05;;;;;;;11.63;7.32;;;;;;;;;;5014062;28;20057;-73
2022/03/13 00:11:33;;;;;;;11.68;7.05;;;;;;;;;;4996903;28;20064;-73
2022/03/13 00:14:00;;;;;;;9.60;7.43;;;;;;;;;;4996432;28;20042;-73
2022/03/13 00:16:29;;;;;;;12.23;7.20;;;;;;;;;;5012582;28;20077;-73
2022/03/13 00:18:59;;;;;;;10.25;7.35;;;;;;;;;;5013937;28;20045;-74
2022/03/13 00:21:26;;;;;;;10.88;7.13;;;;;;;;;;5013826;28;20037;-74
2022/03/13 00:23:55;;;;;;;8.95;7.53;;;;;;;;;;5013897;28;20108;-73
2022/03/13 00:26:24;;;;;;;13.35;7.65;;;;;;;;;;4996747;28;20409;-73
2022/03/13 00:28:52;;;;;;;12.45;7.05;;;;;;;;;;5011024;28;20048;-75
2022/03/13 00:31:22;;;;;;;12.90;7.55;;;;;;;;;;5013780;28;20061;-73
2022/03/13 00:33:49;;;;;;;11.95;6.80;;;;;;;;;;4996303;28;20038;-76
2022/03/13 00:36:20;;;;;;;12.55;7.43;;;;;;;;;;5012098;28;20124;-76
2022/03/13 00:38:50;;;;;;;10.48;7.28;;;;;;;;;;5013708;28;20038;-74
2022/03/13 00:41:18;;;;;;;11.32;7.00;;;;;;;;;;5013137;28;20046;-73
2022/03/13 00:43:45;;;;;;;11.25;7.47;;;;;;;;;;5013656;28;20041;-73
2022/03/13 00:46:14;;;;;;;13.07;8.30;;;;;;;;;;5013233;28;20046;-73
2022/03/13 00:48:42;;;;;;;11.43;7.32;;;;;;;;;;4995468;28;20057;-73
2022/03/13 00:51:09;;;;;;;12.27;7.50;;;;;;;;;;5013414;28;20048;-76
2022/03/13 00:53:38;;;;;;;11.38;7.22;;;;;;;;;;5013535;28;20133;-73
2022/03/13 00:56:05;;;;;;;10.93;7.10;;;;;;;;;;4996187;28;20048;-76
2022/03/13 00:58:33;;;;;;;10.15;7.57;;;;;;;;;;5012064;28;20397;-75
2022/03/13 01:01:00;;;;;;;8.43;7.18;;;;;;;;;;4995503;28;20049;-73
2022/03/13 01:03:37;;;;;;;9.55;6.65;;;;;;;;;;5013513;28;20065;-73
2022/03/13 01:06:07;;;;;;;8.55;6.75;;;;;;;;;;4996240;28;20457;-73
2022/03/13 01:09:00;;;;;;;9.40;7.20;;;;;;;;;;4978333;28;20095;-74
2022/03/13 01:11:31;;;;;;;11.75;6.93;;;;;;;;;;4992828;28;20058;-73
2022/03/13 01:13:59;;;;;;;10.48;6.78;;;;;;;;;;4993328;28;20042;-74
2022/03/13 01:16:28;;;;;;;7.38;6.60;;;;;;;;;;5008523;28;20398;-73
2022/03/13 01:18:58;;;;;;;10.75;7.07;;;;;;;;;;5008474;28;20049;-73
2022/03/13 01:21:26;;;;;;;7.85;6.70;;;;;;;;;;5008533;28;20081;-75
2022/03/13 01:24:05;;;;;;;13.82;7.53;;;;;;;;;;5008597;28;20053;-75
2022/03/13 01:26:36;;;;;;;11.45;7.45;;;;;;;;;;5008551;28;20093;-73
2022/03/13 01:29:06;;;;;;;11.60;6.68;;;;;;;;;;4993059;28;20042;-75
2022/03/13 01:31:35;;;;;;;10.73;6.90;;;;;;;;;;5008139;28;20054;-74
2022/03/13 01:34:03;;;;;;;9.20;6.90;;;;;;;;;;4993540;28;20531;-73
2022/03/13 01:36:31;;;;;;;10.40;6.65;;;;;;;;;;5007695;28;20068;-73
2022/03/13 01:39:00;;;;;;;13.68;6.88;;;;;;;;;;4993572;28;20038;-73
2022/03/13 01:41:28;;;;;;;9.05;6.72;;;;;;;;;;5008354;28;20121;-73
2022/03/13 01:43:57;;;;;;;8.98;6.93;;;;;;;;;;5008785;28;20076;-72
2022/03/13 01:46:24;;;;;;;11.93;6.13;;;;;;;;;;5008554;28;20557;-72
2022/03/13 01:49:12;;;;;;;11.73;6.38;;;;;;;;;;5008419;28;20046;-73
2022/03/13 01:51:40;;;;;;;9.43;6.50;;;;;;;;;;4992198;28;20043;-75
2022/03/13 01:54:10;;;;;;;10.23;6.57;;;;;;;;;;5008116;28;20038;-72
2022/03/13 01:56:38;;;;;;;8.35;6.47;;;;;;;;;;5008415;28;20483;-74
2022/03/13 01:59:07;;;;;;;8.65;6.95;;;;;;;;;;4993158;28;20040;-75
2022/03/13 02:01:34;;;;;;;9.30;6.53;;;;;;;;;;5007974;28;20491;-73
2022/03/13 02:04:04;;;;;;;10.43;7.15;;;;;;;;;;4993194;28;20467;-75
2022/03/13 02:06:35;;;;;;;9.60;6.07;;;;;;;;;;4993503;28;20040;-74
2022/03/13 02:09:06;;;;;;;9.02;7.15;;;;;;;;;;4992942;28;20161;-73
2022/03/13 02:11:38;;;;;;;8.45;6.70;;;;;;;;;;4993265;28;20046;-74
2022/03/13 02:14:06;;;;;;;10.88;6.70;;;;;;;;;;4992641;28;20117;-73
2022/03/13 02:16:33;;;;;;;10.55;6.20;;;;;;;;;;4992985;28;20046;-74
2022/03/13 02:19:02;;;;;;;8.15;6.75;;;;;;;;;;4993337;28;20039;-73
2022/03/13 02:21:31;;;;;;;8.43;6.20;;;;;;;;;;4993346;28;20038;-75
2022/03/13 02:24:02;;;;;;;11.93;6.65;;;;;;;;;;5008136;28;20057;-75
2022/03/13 02:26:34;;;;;;;13.25;6.82;;;;;;;;;;4993162;28;20038;-73
2022/03/13 02:29:03;;;;;;;8.90;6.70;;;;;;;;;;5007212;28;20463;-72
2022/03/13 02:31:36;;;;;;;9.20;6.32;;;;;;;;;;5008009;28;20383;-74
2022/03/13 02:34:11;;;;;;;10.10;6.68;;;;;;;;;;5007858;28;20058;-73
2022/03/13 02:36:39;;;;;;;9.63;6.80;;;;;;;;;;5007681;28;20129;-73
2022/03/13 02:39:08;;;;;;;10.38;6.70;;;;;;;;;;5009649;28;20038;-74
2022/03/13 02:41:37;;;;;;;7.50;6.18;;;;;;;;;;4995135;28;20050;-75
2022/03/13 02:44:07;;;;;;;9.40;6.80;;;;;;;;;;5014018;28;20493;-73
2022/03/13 02:46:47;;;;;;;7.13;5.93;;;;;;;;;;5015806;28;20053;-73
2022/03/13 02:49:19;;;;;;;9.30;6.18;;;;;;;;;;5014627;28;20416;-73
2022/03/13 02:51:47;;;;;;;9.07;6.40;;;;;;;;;;5015993;28;20129;-73
2022/03/13 02:54:15;;;;;;;12.40;6.85;;;;;;;;;;5015764;28;20089;-72
2022/03/13 02:56:45;;;;;;;13.93;7.00;;;;;;;;;;4998284;28;20049;-72
2022/03/13 02:59:14;;;;;;;8.00;6.30;;;;;;;;;;4998723;28;20052;-72
2022/03/13 03:01:42;;;;;;;9.55;6.18;;;;;;;;;;4997818;28;20041;-73
2022/03/13 03:04:10;;;;;;;7.97;6.25;;;;;;;;;;5015690;28;20042;-73
2022/03/13 03:06:38;;;;;;;8.50;5.90;;;;;;;;;;4993499;28;20402;-72
2022/03/13 03:09:07;;;;;;;8.77;6.25;;;;;;;;;;5010785;28;20584;-74
2022/03/13 03:11:34;;;;;;;13.23;7.03;;;;;;;;;;4995963;28;20042;-72
2022/03/13 03:14:02;;;;;;;10.05;6.43;;;;;;;;;;4995642;28;20038;-75
2022/03/13 03:16:30;;;;;;;8.68;6.05;;;;;;;;;;5010675;28;20054;-72
2022/03/13 03:18:58;;;;;;;9.43;6.63;;;;;;;;;;4996008;28;20042;-72
2022/03/13 03:21:26;;;;;;;8.60;6.30;;;;;;;;;;4996153;28;20042;-74
2022/03/13 03:23:54;;;;;;;11.88;6.68;;;;;;;;;;4995553;28;20042;-75
2022/03/13 03:26:25;;;;;;;9.27;6.75;;;;;;;;;;4995642;28;20061;-73
2022/03/13 03:28:52;;;;;;;8.15;6.35;;;;;;;;;;5011051;28;20398;-72
2022/03/13 03:31:19;;;;;;;10.32;6.68;;;;;;;;;;5010707;28;20053;-72
2022/03/13 03:33:47;;;;;;;12.68;6.57;;;;;;;;;;5010384;28;20125;-75
2022/03/13 03:36:16;;;;;;;7.75;6.25;;;;;;;;;;5009835;28;20540;-74
2022/03/13 03:38:44;;;;;;;9.48;6.68;;;;;;;;;;4995535;28;20378;-74
2022/03/13 03:41:11;;;;;;;7.70;6.13;;;;;;;;;;4995674;28;20038;-74
2022/03/13 03:43:40;;;;;;;9.00;6.43;;;;;;;;;;4995543;28;20046;-73
2022/03/13 03:46:13;;;;;;;10.73;6.53;;;;;;;;;;4995399;28;20065;-75
2022/03/13 03:48:40;;;;;;;10.63;6.28;;;;;;;;;;5009827;28;20046;-75
2022/03/13 03:51:08;;;;;;;12.68;6.25;;;;;;;;;;4995381;28;20066;-73
2022/03/13 03:53:36;;;;;;;8.15;6.45;;;;;;;;;;5010121;28;20035;-74
2022/03/13 03:56:05;;;;;;;8.90;6.05;;;;;;;;;;5006058;28;20117;-75
2022/03/13 03:58:32;;;;;;;10.25;6.10;;;;;;;;;;5014607;28;20038;-74
2022/03/13 04:01:03;;;;;;;8.77;5.60;;;;;;;;;;5013228;28;20038;-74
2022/03/13 04:03:31;;;;;;;9.75;6.00;;;;;;;;;;5014984;28;20047;-72
2022/03/13 04:05:59;;;;;;;6.95;5.75;;;;;;;;;;5014525;28;20045;-75
2022/03/13 04:08:29;;;;;;;10.95;6.22;;;;;;;;;;5014868;28;20052;-74
2022/03/13 04:10:56;;;;;;;8.85;6.13;;;;;;;;;;5013392;28;20042;-72
2022/03/13 04:13:24;;;;;;;9.30;6.07;;;;;;;;;;5014056;28;20054;-73
2022/03/13 04:15:52;;;;;;;11.07;6.18;;;;;;;;;;5012945;28;20395;-72
2022/03/13 04:18:19;;;;;;;10.23;6.22;;;;;;;;;;5013438;28;20042;-72
2022/03/13 04:20:47;;;;;;;10.30;6.20;;;;;;;;;;5013212;28;20046;-74
2022/03/13 04:23:15;;;;;;;9.40;6.18;;;;;;;;;;5013123;28;20042;-74
2022/03/13 04:25:43;;;;;;;9.40;6.30;;;;;;;;;;5013997;28;20048;-72
2022/03/13 04:28:12;;;;;;;12.90;6.90;;;;;;;;;;5013286;28;20113;-72
2022/03/13 04:30:40;;;;;;;11.38;6.55;;;;;;;;;;5014394;28;20052;-72
2022/03/13 04:33:07;;;;;;;10.02;6.60;;;;;;;;;;5013928;28;20445;-72
2022/03/13 04:35:35;;;;;;;9.73;6.55;;;;;;;;;;5013311;28;20042;-74
2022/03/13 04:38:03;;;;;;;12.90;8.18;;;;;;;;;;5012474;28;20133;-72
2022/03/13 04:40:33;;;;;;;16.95;11.98;;;;;;;;;;5013974;28;20057;-74
2022/03/13 04:43:01;;;;;;;27.88;18.73;;;;;;;;;;5013778;28;20048;-74
2022/03/13 04:45:29;;;;;;;17.67;11.13;;;;;;;;;;5013837;28;20128;-73
2022/03/13 04:47:57;;;;;;;14.13;9.02;;;;;;;;;;5012304;28;20077;-72
2022/03/13 04:50:25;;;;;;;13.30;9.40;;;;;;;;;;5013123;28;20041;-74
2022/03/13 04:52:52;;;;;;;12.38;9.35;;;;;;;;;;5013793;28;20038;-72
2022/03/13 04:55:20;;;;;;;16.75;8.95;;;;;;;;;;5012549;28;20046;-72
2022/03/13 04:57:47;;;;;;;12.15;8.88;;;;;;;;;;5013764;28;20041;-74
2022/03/13 05:00:15;;;;;;;12.07;9.02;;;;;;;;;;5013975;28;20042;-72
2022/03/13 05:02:44;;;;;;;12.05;8.45;;;;;;;;;;5013452;28;20060;-72
2022/03/13 05:05:11;;;;;;;9.95;7.60;;;;;;;;;;5012312;28;20500;-72
2022/03/13 05:07:39;;;;;;;11.05;8.05;;;;;;;;;;5013216;28;20477;-72
2022/03/13 05:10:11;;;;;;;10.68;7.28;;;;;;;;;;5012519;28;20046;-74
2022/03/13 05:12:39;;;;;;;10.13;7.07;;;;;;;;;;5012997;28;20034;-72
2022/03/13 05:15:07;;;;;;;12.65;7.22;;;;;;;;;;5011953;28;20413;-74
2022/03/13 05:17:35;;;;;;;9.90;6.55;;;;;;;;;;5013189;28;20045;-72
2022/03/13 05:20:03;;;;;;;9.55;6.68;;;;;;;;;;5011892;28;20486;-74
2022/03/13 05:22:30;;;;;;;11.13;6.50;;;;;;;;;;5012408;28;20048;-75
2022/03/13 05:24:58;;;;;;;10.45;6.32;;;;;;;;;;5013309;28;20457;-73
2022/03/13 05:27:26;;;;;;;9.35;6.68;;;;;;;;;;5013367;28;20049;-74
2022/03/13 05:29:54;;;;;;;7.90;5.93;;;;;;;;;;5013383;28;20042;-74
2022/03/13 05:32:22;;;;;;;10.77;5.70;;;;;;;;;;5013100;28;20041;-74
2022/03/13 05:34:50;;;;;;;7.07;5.60;;;;;;;;;;5012727;28;20044;-72
2022/03/13 05:37:18;;;;;;;9.38;5.20;;;;;;;;;;5011335;28;20046;-73
2022/03/13 05:39:45;;;;;;;8.55;6.03;;;;;;;;;;5013271;28;20045;-72
2022/03/13 05:42:13;;;;;;;13.48;5.80;;;;;;;;;;5012632;28;20109;-75
2022/03/13 05:44:41;;;;;;;7.93;4.82;;;;;;;;;;5011506;28;20049;-74
2022/03/13 05:47:08;;;;;;;7.72;5.00;;;;;;;;;;5012853;28;20045;-72
2022/03/13 05:49:37;;;;;;;12.43;5.07;;;;;;;;;;5012486;28;20034;-72
2022/03/13 05:52:05;;;;;;;9.55;5.00;;;;;;;;;;5013034;28;20100;-74
2022/03/13 05:54:33;;;;;;;8.48;5.07;;;;;;;;;;5012908;28;20038;-72
2022/03/13 05:57:03;;;;;;;6.32;5.10;;;;;;;;;;5012845;28;20038;-74
2022/03/13 05:59:31;;;;;;;8.70;4.80;;;;;;;;;;5011631;28;20137;-72
2022/03/13 06:02:03;;;;;;;5.43;4.90;;;;;;;;;;5011530;28;20052;-74
2022/03/13 06:04:32;;;;;;;8.90;4.97;;;;;;;;;;5012155;28;20521;-74
2022/03/13 06:07:00;;;;;;;5.60;4.80;;;;;;;;;;5012793;28;20618;-72
2022/03/13 06:09:27;;;;;;;9.80;5.15;;;;;;;;;;5013092;28;20038;-72
2022/03/13 06:11:57;;;;;;;5.90;4.68;;;;;;;;;;5011195;28;20042;-74
2022/03/13 06:14:25;;;;;;;8.98;5.57;;;;;;;;;;5012342;28;20121;-75
2022/03/13 06:16:52;;;;;;;6.88;4.82;;;;;;;;;;5012614;28;20089;-72
2022/03/13 06:19:20;;;;;;;6.72;4.53;;;;;;;;;;5014672;28;20385;-73
2022/03/13 06:21:48;;;;;;;8.32;5.03;;;;;;;;;;5016733;28;20211;-72
2022/03/13 06:24:17;;;;;;;6.95;4.78;;;;;;;;;;5015440;28;20072;-74
2022/03/13 06:26:44;;;;;;;6.28;4.70;;;;;;;;;;5015313;28;20037;-74
2022/03/13 06:29:15;;;;;;;9.02;4.63;;;;;;;;;;5016614;28;20472;-74
2022/03/13 06:31:43;;;;;;;8.05;4.70;;;;;;;;;;5011646;28;20042;-74
2022/03/13 06:34:10;;;;;;;6.43;4.45;;;;;;;;;;5013313;28;20042;-73
2022/03/13 06:36:39;;;;;;;8.30;4.80;;;;;;;;;;4995301;28;20046;-72
2022/03/13 06:39:06;;;;;;;12.50;5.00;;;;;;;;;;4999905;28;20046;-71
2022/03/13 06:41:34;;;;;;;10.40;5.03;;;;;;;;;;5011649;28;20033;-74
2022/03/13 06:44:01;;;;;;;7.15;4.75;;;;;;;;;;4995437;28;20038;-73
2022/03/13 06:46:29;;;;;;;7.55;4.72;;;;;;;;;;5010300;28;20034;-73
2022/03/13 06:48:57;;;;;;;8.30;4.70;;;;;;;;;;5011851;28;20048;-74
2022/03/13 06:51:24;;;;;;;6.07;4.03;;;;;;;;;;4991526;28;20050;-72
2022/03/13 06:53:52;;;;;;;7.53;4.43;;;;;;;;;;5007754;28;20405;-74
2022/03/13 06:56:20;;;;;;;10.32;4.70;;;;;;;;;;5008516;28;20418;-74
2022/03/13 06:58:47;;;;;;;4.95;4.45;;;;;;;;;;5012299;28;20597;-75
2022/03/13 07:01:16;;;;;;;8.18;4.88;;;;;;;;;;5012172;28;20052;-72
2022/03/13 07:03:43;;;;;;;6.00;4.10;;;;;;;;;;5012566;28;20049;-74
2022/03/13 07:06:12;;;;;;;12.30;4.90;;;;;;;;;;5011096;28;20069;-74
2022/03/13 07:08:39;;;;;;;6.45;4.20;;;;;;;;;;5009923;28;20046;-74
2022/03/13 07:11:07;;;;;;;4.95;4.40;;;;;;;;;;5002140;28;20053;-74
2022/03/13 07:13:35;;;;;;;5.93;4.50;;;;;;;;;;5000912;28;20105;-73
2022/03/13 07:16:04;;;;;;;6.32;4.43;;;;;;;;;;5103357;23;20119;-74
2022/03/13 07:18:33;;;;;;;7.93;4.70;;;;;;;;;;5003874;28;20089;-76
2022/03/13 07:21:01;;;;;;;5.72;4.25;;;;;;;;;;5031222;28;20048;-73
2022/03/13 07:23:29;;;;;;;6.70;4.63;;;;;;;;;;5030133;28;20041;-75
2022/03/13 07:25:58;;;;;;;8.10;4.20;;;;;;;;;;5009064;28;20053;-75
2022/03/13 07:28:26;;;;;;;5.88;4.50;;;;;;;;;;5030000;28;20045;-74
2022/03/13 07:30:54;;;;;;;5.95;4.28;;;;;;;;;;5030738;28;20037;-75
2022/03/13 07:33:23;;;;;;;8.30;4.82;;;;;;;;;;5007232;28;20441;-75
2022/03/13 07:35:55;;;;;;;7.50;4.40;;;;;;;;;;5007324;28;20150;-73
2022/03/13 07:38:23;;;;;;;5.90;4.15;;;;;;;;;;5032324;28;20038;-74
2022/03/13 07:40:50;;;;;;;8.35;4.63;;;;;;;;;;5032025;28;20049;-73
2022/03/13 07:43:19;;;;;;;7.35;4.95;;;;;;;;;;5013933;28;20055;-75
2022/03/13 07:45:47;;;;;;;12.82;4.70;;;;;;;;;;5019964;28;20045;-76
2022/03/13 07:48:16;;;;;;;5.00;4.32;;;;;;;;;;5047492;28;20090;-75
2022/03/13 07:50:44;;;;;;;6.05;4.25;;;;;;;;;;5051774;28;20037;-73
2022/03/13 07:53:11;;;;;;;8.90;4.38;;;;;;;;;;5033347;28;20049;-74
2022/03/13 07:55:39;;;;;;;6.93;4.68;;;;;;;;;;5033415;28;20415;-75
2022/03/13 07:58:08;;;;;;;9.05;4.32;;;;;;;;;;5051324;28;20073;-73
2022/03/13 08:00:36;;;;;;;7.65;4.53;;;;;;;;;;5052702;28;20033;-74
2022/03/13 08:03:04;;;;;;;6.07;4.57;;;;;;;;;;5024911;28;20041;-75
2022/03/13 08:05:32;;;;;;;8.02;4.40;;;;;;;;;;5051488;28;20044;-74
2022/03/13 08:08:00;;;;;;;6.88;4.22;;;;;;;;;;5052073;28;20052;-74
2022/03/13 08:10:28;;;;;;;5.88;4.35;;;;;;;;;;5050786;28;20515;-73
2022/03/13 08:12:56;;;;;;;8.07;4.70;;;;;;;;;;5028187;28;20064;-73
2022/03/13 08:15:23;;;;;;;6.63;4.57;;;;;;;;;;5031444;28;20041;-75
2022/03/13 08:17:52;;;;;;;8.32;4.80;;;;;;;;;;5051851;28;20464;-75
2022/03/13 08:20:19;;;;;;;9.73;4.28;;;;;;;;;;5050938;28;20043;-75
2022/03/13 08:22:47;;;;;;;7.72;4.75;;;;;;;;;;5072112;28;20055;-73
2022/03/13 08:25:19;;;;;;;6.03;4.50;;;;;;;;;;5069061;28;20044;-76
2022/03/13 08:27:48;;;;;;;6.10;4.80;;;;;;;;;;5051105;28;20127;-74
2022/03/13 08:30:18;;;;;;;7.55;4.55;;;;;;;;;;5051921;28;20054;-74
2022/03/13 08:32:45;;;;;;;5.32;4.55;;;;;;;;;;5049439;28;20047;-76
2022/03/13 08:35:13;;;;;;;8.65;5.28;;;;;;;;;;5067356;28;20037;-74
2022/03/13 08:37:42;;;;;;;6.65;4.18;;;;;;;;;;5050659;28;20083;-73
2022/03/13 08:40:11;;;;;;;7.03;4.80;;;;;;;;;;5069408;28;20029;-76
2022/03/13 08:42:38;;;;;;;9.35;4.95;;;;;;;;;;5067937;28;20111;-76
2022/03/13 08:45:08;;;;;;;6.60;4.70;;;;;;;;;;5068235;28;20032;-74
2022/03/13 08:47:35;;;;;;;9.05;4.43;;;;;;;;;;5050596;28;20044;-75
2022/03/13 08:50:03;;;;;;;6.00;4.47;;;;;;;;;;5072591;28;20037;-73
2022/03/13 08:52:31;;;;;;;10.27;5.30;;;;;;;;;;5051558;28;20515;-75
2022/03/13 08:54:58;;;;;;;9.93;5.10;;;;;;;;;;5064701;28;20059;-76
2022/03/13 08:57:26;;;;;;;6.47;4.15;;;;;;;;;;5052639;28;20496;-76
2022/03/13 08:59:55;;;;;;;6.90;4.45;;;;;;;;;;5033505;28;20036;-73
2022/03/13 09:02:23;;;;;;;8.70;4.55;;;;;;;;;;5072624;28;20438;-71
2022/03/13 09:04:51;;;;;;;7.55;5.03;;;;;;;;;;5073251;28;20544;-74
2022/03/13 09:07:19;;;;;;;7.15;4.05;;;;;;;;;;5038505;28;20056;-74
2022/03/13 09:09:47;;;;;;;6.63;4.60;;;;;;;;;;5056038;28;20051;-71
2022/03/13 09:12:16;;;;;;;5.28;4.43;;;;;;;;;;5054992;28;20051;-72
2022/03/13 09:14:43;;;;;;;7.55;4.63;;;;;;;;;;5072687;28;20391;-76
2022/03/13 09:17:18;;;;;;;5.75;4.30;;;;;;;;;;5050027;28;20085;-76
2022/03/13 09:19:46;;;;;;;7.72;4.60;;;;;;;;;;5071480;28;20037;-77
2022/03/13 09:22:18;;;;;;;9.93;4.28;;;;;;;;;;5072396;28;20519;-77
2022/03/13 09:24:48;;;;;;;6.20;4.25;;;;;;;;;;5036128;28;20425;-76
2022/03/13 09:27:16;;;;;;;6.63;4.40;;;;;;;;;;5053993;28;20047;-75
2022/03/13 09:29:44;;;;;;;8.55;4.90;;;;;;;;;;5053826;28;20126;-74
2022/03/13 09:32:11;;;;;;;6.53;4.65;;;;;;;;;;5072483;28;20484;-76
2022/03/13 09:34:40;;;;;;;8.73;4.18;;;;;;;;;;5053934;28;20048;-76
2022/03/13 09:37:07;;;;;;;6.85;4.50;;;;;;;;;;5049923;28;20518;-76
2022/03/13 09:39:36;;;;;;;5.85;4.68;;;;;;;;;;5052837;28;20395;-75
2022/03/13 09:42:06;;;;;;;7.35;4.80;;;;;;;;;;5054934;28;20051;-73
2022/03/13 09:44:34;;;;;;;6.25;4.20;;;;;;;;;;5072886;28;20120;-73
2022/03/13 09:47:05;;;;;;;6.63;4.82;;;;;;;;;;5072750;28;20129;-76
2022/03/13 09:49:32;;;;;;;10.63;6.30;;;;;;;;;;5072509;28;20399;-75
2022/03/13 09:52:00;;;;;;;12.43;6.47;;;;;;;;;;5072285;28;20063;-75
2022/03/13 09:54:27;;;;;;;16.25;7.53;;;;;;;;;;5076305;28;20045;-75
2022/03/13 09:56:55;;;;;;;16.08;8.40;;;;;;;;;;5059120;28;20102;-74
2022/03/13 09:59:23;;;;;;;13.43;6.75;;;;;;;;;;5076320;28;20048;-74
2022/03/13 10:01:50;;;;;;;10.32;5.60;;;;;;;;;;5076304;28;20123;-75
2022/03/13 10:04:20;;;;;;;7.30;4.63;;;;;;;;;;5057730;28;20090;-75
2022/03/13 10:07:00;;;;;;;9.52;5.20;;;;;;;;;;5076468;28;20040;-75
2022/03/13 10:09:29;;;;;;;7.75;4.97;;;;;;;;;;5076593;28;20052;-73
2022/03/13 10:12:12;;;;;;;6.95;4.38;;;;;;;;;;5076010;28;20396;-74
2022/03/13 10:14:58;;;;;;;5.47;4.27;;;;;;;;;;5074665;28;20067;-75
2022/03/13 10:17:30;;;;;;;6.40;4.40;;;;;;;;;;5076330;28;20543;-75
2022/03/13 10:20:16;;;;;;;7.43;4.72;;;;;;;;;;5076049;28;20040;-75
2022/03/13 10:22:45;;;;;;;7.40;4.53;;;;;;;;;;5074370;28;20044;-75
2022/03/13 10:25:14;;;;;;;4.85;4.25;;;;;;;;;;5074740;28;20045;-73
2022/03/13 10:27:43;;;;;;;6.80;3.97;;;;;;;;;;5074949;28;20044;-77
2022/03/13 10:30:11;;;;;;;4.80;3.65;;;;;;;;;;5038612;28;20076;-77
2022/03/13 10:32:39;;;;;;;9.85;4.65;;;;;;;;;;5053202;28;20036;-74
2022/03/13 10:35:07;;;;;;;5.68;3.80;;;;;;;;;;5037612;28;20051;-77
2022/03/13 10:37:39;;;;;;;8.18;4.45;;;;;;;;;;5056042;28;20064;-74
2022/03/13 10:40:08;;;;;;;6.90;4.07;;;;;;;;;;5075160;28;20043;-73
2022/03/13 10:42:46;;;;;;;4.60;3.83;;;;;;;;;;5057027;28;20059;-72
2022/03/13 10:45:37;;;;;;;5.28;4.18;;;;;;;;;;5075461;28;20033;-77
2022/03/13 10:48:21;;;;;;;4.95;4.05;;;;;;;;;;5057595;28;20102;-73
2022/03/13 10:50:51;;;;;;;5.10;3.58;;;;;;;;;;5075482;28;20040;-77
2022/03/13 10:53:23;;;;;;;5.53;4.53;;;;;;;;;;5058642;28;20033;-74
2022/03/13 10:56:00;;;;;;;5.35;4.22;;;;;;;;;;5075607;28;20474;-77
2022/03/13 10:58:31;;;;;;;6.05;4.38;;;;;;;;;;5057887;28;20111;-73
2022/03/13 11:01:23;;;;;;;5.13;4.22;;;;;;;;;;5075564;28;20041;-76
2022/03/13 11:03:52;;;;;;;5.65;3.88;;;;;;;;;;5050436;28;20053;-77
2022/03/13 11:06:21;;;;;;;4.88;4.38;;;;;;;;;;5075236;28;20048;-74
2022/03/13 11:08:54;;;;;;;4.65;4.15;;;;;;;;;;5041096;28;20396;-76
2022/03/13 11:11:22;;;;;;;;;;;;;;;;;;5075825;28;20041;-74
2022/03/13 11:13:55;;;;;;;5.60;4.78;;;;;;;;;;5075042;28;19920;-77
2022/03/13 11:16:27;;;;;;;5.50;4.85;;;;;;;;;;5075343;28;20135;-76
2022/03/13 11:18:56;;;;;;;8.82;5.45;;;;;;;;;;5075272;28;20036;-74
2022/03/13 11:21:25;;;;;;;7.22;5.00;;;;;;;;;;5075412;28;20484;-73
2022/03/13 11:23:53;;;;;;;7.57;4.93;;;;;;;;;;5040811;28;20041;-75
2022/03/13 11:26:23;;;;;;;7.43;4.63;;;;;;;;;;5074951;28;20086;-76
2022/03/13 11:28:53;;;;;;;9.32;5.10;;;;;;;;;;5075128;28;20041;-74
2022/03/13 11:31:31;;;;;;;9.00;5.28;;;;;;;;;;5075026;28;20033;-74
2022/03/13 11:34:12;;;;;;;7.95;5.60;;;;;;;;;;5056753;28;20491;-74
2022/03/13 11:36:41;;;;;;;10.00;5.47;;;;;;;;;;5074672;28;20053;-76
2022/03/13 11:39:10;;;;;;;7.70;5.57;;;;;;;;;;5074509;28;20037;-76
2022/03/13 11:41:43;;;;;;;9.38;5.18;;;;;;;;;;5056608;28;20131;-76
2022/03/13 11:44:20;;;;;;;7.95;5.20;;;;;;;;;;5040333;28;20135;-74
2022/03/13 11:46:48;;;;;;;8.43;5.55;;;;;;;;;;5056903;28;20070;-74
2022/03/13 11:49:17;;;;;;;7.13;5.25;;;;;;;;;;5074751;28;20044;-73
2022/03/13 11:51:45;;;;;;;7.30;5.68;;;;;;;;;;5056740;28;20044;-76
2022/03/13 11:54:16;;;;;;;9.07;5.47;;;;;;;;;;5056508;28;20087;-77
2022/03/13 11:56:47;;;;;;;8.73;5.47;;;;;;;;;;5039728;28;20429;-74
2022/03/13 11:59:17;;;;;;;9.02;4.82;;;;;;;;;;5056549;28;20509;-75
2022/03/13 12:01:45;;;;;;;7.55;4.82;;;;;;;;;;5074376;28;20086;-74
2022/03/13 12:04:16;;;;;;;5.28;4.65;;;;;;;;;;5074360;28;20120;-73
2022/03/13 12:06:48;;;;;;;6.82;4.70;;;;;;;;;;5057028;28;20139;-73
2022/03/13 12:09:19;;;;;;;6.32;4.88;;;;;;;;;;5056209;28;20045;-77
2022/03/13 12:11:52;;;;;;;5.80;4.60;;;;;;;;;;5039829;28;20040;-74
2022/03/13 12:14:20;;;;;;;7.78;4.85;;;;;;;;;;5056268;28;20567;-76
2022/03/13 12:17:04;;;;;;;7.85;4.95;;;;;;;;;;5041325;28;20413;-76
2022/03/13 12:19:42;;;;;;;7.93;5.20;;;;;;;;;;5054326;28;20044;-74
2022/03/13 12:22:10;;;;;;;6.28;5.13;;;;;;;;;;5054321;28;20070;-73
2022/03/13 12:24:38;;;;;;;7.95;4.68;;;;;;;;;;5019956;28;20041;-74
2022/03/13 12:27:06;;;;;;;6.80;4.80;;;;;;;;;;5019829;28;20059;-73
2022/03/13 12:29:34;;;;;;;8.73;5.78;;;;;;;;;;5054256;28;20108;-74
2022/03/13 12:32:02;;;;;;;8.98;5.32;;;;;;;;;;5053937;28;20040;-74
2022/03/13 12:34:30;;;;;;;7.55;5.50;;;;;;;;;;5036223;28;20049;-74
2022/03/13 12:37:02;;;;;;;8.45;5.30;;;;;;;;;;5053642;28;20037;-74
2022/03/13 12:39:30;;;;;;;11.45;5.88;;;;;;;;;;5035667;28;20049;-73
2022/03/13 12:42:04;;;;;;;6.93;5.27;;;;;;;;;;5054176;28;20049;-74
2022/03/13 12:44:34;;;;;;;6.90;5.60;;;;;;;;;;5019947;28;20052;-74
2022/03/13 12:47:02;;;;;;;7.53;5.18;;;;;;;;;;5053875;28;20060;-75
2022/03/13 12:49:32;;;;;;;7.65;4.80;;;;;;;;;;5035294;28;21088;-77
2022/03/13 12:51:59;;;;;;;8.43;5.28;;;;;;;;;;5053643;28;20044;-73
2022/03/13 12:54:29;;;;;;;7.32;5.35;;;;;;;;;;5036332;28;20403;-76
2022/03/13 12:56:59;;;;;;;7.60;5.40;;;;;;;;;;5019528;28;20134;-77
2022/03/13 12:59:45;;;;;;;8.23;5.47;;;;;;;;;;5035966;28;20033;-76
2022/03/13 13:02:23;;;;;;;7.20;5.18;;;;;;;;;;5053205;28;20045;-77
2022/03/13 13:04:56;;;;;;;6.75;5.07;;;;;;;;;;5053678;28;20040;-74
2022/03/13 13:07:27;;;;;;;6.33;5.33;;;;;;;;;;5053935;28;20037;-73
2022/03/13 13:09:57;;;;;;;7.28;5.20;;;;;;;;;;5035782;28;20116;-74
2022/03/13 13:12:30;;;;;;;6.55;4.75;;;;;;;;;;5035293;28;20053;-76
2022/03/13 13:14:59;;;;;;;6.95;5.00;;;;;;;;;;5035320;28;20437;-73
2022/03/13 13:17:28;;;;;;;6.10;5.07;;;;;;;;;;5035389;28;20040;-73
2022/03/13 13:20:04;;;;;;;8.85;5.88;;;;;;;;;;5019229;28;20052;-76
2022/03/13 13:22:32;;;;;;;5.65;4.75;;;;;;;;;;5035610;28;20134;-74
2022/03/13 13:25:01;;;;;;;4.78;4.28;;;;;;;;;;5035576;28;20397;-76
2022/03/13 13:27:29;;;;;;;6.53;4.57;;;;;;;;;;5051976;28;20522;-73
2022/03/13 13:30:14;;;;;;;6.60;4.50;;;;;;;;;;5035780;28;20041;-74
2022/03/13 13:32:52;;;;;;;4.47;4.07;;;;;;;;;;5018819;28;20045;-76
2022/03/13 13:35:26;;;;;;;6.05;4.68;;;;;;;;;;5053581;28;20376;-73
2022/03/13 13:37:57;;;;;;;6.63;3.97;;;;;;;;;;5034999;28;20041;-77
2022/03/13 13:40:27;;;;;;;5.60;4.50;;;;;;;;;;5053050;28;20068;-76
2022/03/13 13:42:59;;;;;;;6.20;4.85;;;;;;;;;;5053296;28;20041;-76
2022/03/13 13:45:32;;;;;;;5.80;4.90;;;;;;;;;;5053179;28;20037;-75
2022/03/13 13:48:39;;;;;;;6.78;4.22;;;;;;;;;;5035156;28;20045;-73
2022/03/13 13:51:21;;;;;;;6.22;4.97;;;;;;;;;;5010662;28;20045;-74
2022/03/13 13:53:54;;;;;;;8.02;4.63;;;;;;;;;;4995308;28;20154;-75
2022/03/13 13:56:26;;;;;;;5.82;4.20;;;;;;;;;;5010958;28;20433;-73
2022/03/13 13:58:54;;;;;;;5.22;4.40;;;;;;;;;;5011407;28;20129;-74
2022/03/13 14:01:32;;;;;;;6.05;5.10;;;;;;;;;;5011239;28;20096;-77
2022/03/13 14:04:02;;;;;;;6.22;4.07;;;;;;;;;;5011207;28;20073;-74
2022/03/13 14:06:34;;;;;;;7.00;3.78;;;;;;;;;;5011298;28;20391;-77
2022/03/13 14:09:03;;;;;;;5.55;4.00;;;;;;;;;;5011287;28;20061;-74
2022/03/13 14:11:34;;;;;;;5.32;3.90;;;;;;;;;;4995389;28;20513;-75
2022/03/13 14:14:03;;;;;;;4.65;3.88;;;;;;;;;;5010343;28;20046;-74
2022/03/13 14:16:32;;;;;;;5.03;4.05;;;;;;;;;;5022845;28;20075;-77
2022/03/13 14:19:18;;;;;;;7.43;4.30;;;;;;;;;;5030507;28;20061;-76
2022/03/13 14:21:47;;;;;;;4.97;3.80;;;;;;;;;;5049576;28;20428;-77
2022/03/13 14:24:15;;;;;;;4.35;3.53;;;;;;;;;;5054612;28;20415;-77
2022/03/13 14:26:43;;;;;;;3.90;3.50;;;;;;;;;;5054705;28;20060;-75
2022/03/13 14:29:11;;;;;;;7.88;3.38;;;;;;;;;;5072770;28;20063;-77
2022/03/13 14:31:39;;;;;;;6.07;3.90;;;;;;;;;;5072445;28;20064;-75
2022/03/13 14:34:07;;;;;;;4.03;3.50;;;;;;;;;;5038186;28;20127;-73
2022/03/13 14:36:34;;;;;;;3.90;3.50;;;;;;;;;;5072596;28;20404;-73
2022/03/13 14:39:02;;;;;;;6.07;3.60;;;;;;;;;;5073224;28;20495;-72
2022/03/13 14:41:30;;;;;;;3.95;3.45;;;;;;;;;;5058670;28;20044;-73
2022/03/13 14:44:01;;;;;;;4.25;3.55;;;;;;;;;;5058474;28;20047;-72
2022/03/13 14:46:30;;;;;;;4.40;3.47;;;;;;;;;;5058540;28;20541;-72
2022/03/13 14:48:57;;;;;;;5.85;3.67;;;;;;;;;;5058479;28;20036;-74
2022/03/13 14:51:28;;;;;;;4.28;3.75;;;;;;;;;;5075574;28;20050;-75
2022/03/13 14:53:55;;;;;;;4.72;3.95;;;;;;;;;;5058274;28;20491;-75
2022/03/13 14:56:23;;;;;;;4.47;3.70;;;;;;;;;;5075934;28;20047;-77